Time;durP1;ratioP1;P1;durP2;ratioP2;P2;SDS_P1;SDS_P2;PMS_P1;PMS_P2;Temp;Humidity;BMP_temperature;BMP_pressure;BME280_temperature;BME280_humidity;BME280_pressure;Samples;Min_cycle;Max_cycle;Signal;HPM_P1;HPM_P2
2024/02/06 00:01:52;;;;;;;5.70;3.58;;;;;;;14.39;37.96;100082.81;5058147;28;20028;-61
2024/02/06 00:04:18;;;;;;;6.20;4.03;;;;;;;14.35;38.13;100083.34;5059057;28;20079;-62
2024/02/06 00:06:44;;;;;;;6.20;3.70;;;;;;;14.30;38.22;100078.53;5051157;28;20192;-61
2024/02/06 00:09:10;;;;;;;5.28;3.88;;;;;;;14.29;38.13;100076.06;5058089;28;20087;-62
2024/02/06 00:11:35;;;;;;;5.43;3.38;;;;;;;14.22;38.04;100069.78;5048017;28;20052;-62
2024/02/06 00:14:01;;;;;;;5.30;3.50;;;;;;;14.27;37.78;100072.75;5058275;28;20064;-61
2024/02/06 00:16:26;;;;;;;5.97;3.33;;;;;;;14.24;37.64;100065.09;5050200;28;20109;-61
2024/02/06 00:18:52;;;;;;;5.80;3.25;;;;;;;14.22;37.76;100069.78;5058247;28;20075;-61
2024/02/06 00:21:17;;;;;;;4.97;3.30;;;;;;;14.17;38.07;100066.81;5053884;28;20044;-60
2024/02/06 00:23:43;;;;;;;8.98;4.30;;;;;;;14.12;38.03;100070.03;5058066;28;20041;-60
2024/02/06 00:26:09;;;;;;;5.28;3.95;;;;;;;14.10;38.11;100071.19;5058228;28;20338;-61
2024/02/06 00:28:34;;;;;;;5.30;3.35;;;;;;;14.01;38.42;100068.59;5057522;28;20300;-62
2024/02/06 00:31:01;;;;;;;7.80;3.63;;;;;;;14.00;38.27;100072.25;5058350;28;20369;-63
2024/02/06 00:33:27;;;;;;;5.20;3.25;;;;;;;14.01;38.23;100071.25;5057276;28;20576;-60
2024/02/06 00:35:52;;;;;;;7.10;3.40;;;;;;;14.04;38.34;100073.56;5058159;28;20037;-60
2024/02/06 00:38:18;;;;;;;6.00;3.35;;;;;;;13.99;38.13;100075.09;5056923;28;20048;-60
2024/02/06 00:40:43;;;;;;;5.78;2.92;;;;;;;13.99;38.34;100081.25;5058212;28;20323;-62
2024/02/06 00:43:09;;;;;;;4.50;3.20;;;;;;;13.95;38.58;100081.78;5049702;28;20217;-61
2024/02/06 00:45:34;;;;;;;5.20;3.42;;;;;;;13.91;38.64;100094.63;5058139;28;20083;-61
2024/02/06 00:48:00;;;;;;;5.05;3.15;;;;;;;13.94;38.88;100104.09;5054052;28;20096;-60
2024/02/06 00:50:26;;;;;;;6.65;3.80;;;;;;;13.93;38.56;100100.59;5057829;28;20045;-61
2024/02/06 00:52:52;;;;;;;6.95;3.92;;;;;;;14.01;38.46;100102.38;5057600;28;20130;-60
2024/02/06 00:55:18;;;;;;;5.28;3.53;;;;;;;14.04;38.34;100096.69;5057629;28;20044;-60
2024/02/06 00:57:44;;;;;;;6.28;3.40;;;;;;;14.08;38.38;100092.69;5051144;28;20236;-61
2024/02/06 01:00:11;;;;;;;5.93;3.50;;;;;;;14.08;38.39;100087.34;5057521;28;20041;-62
2024/02/06 01:02:36;;;;;;;6.75;3.42;;;;;;;14.11;38.28;100089.66;5056949;28;20097;-62
2024/02/06 01:05:02;;;;;;;9.90;3.92;;;;;;;14.14;38.15;100085.81;5056722;28;20025;-60
2024/02/06 01:07:28;;;;;;;7.15;3.88;;;;;;;14.15;37.92;100079.50;5055875;28;20045;-60
2024/02/06 01:09:55;;;;;;;5.82;3.70;;;;;;;14.10;37.81;100084.50;5050340;28;20235;-61
2024/02/06 01:12:20;;;;;;;5.38;3.53;;;;;;;14.11;37.76;100081.69;5056790;28;20039;-60
2024/02/06 01:14:46;;;;;;;5.60;3.17;;;;;;;14.07;37.61;100077.72;5052262;28;20029;-62
2024/02/06 01:17:11;;;;;;;7.28;2.90;;;;;;;14.05;37.74;100082.38;5056830;28;20059;-62
2024/02/06 01:19:37;;;;;;;5.07;3.00;;;;;;;13.97;38.00;100077.94;5055974;28;20052;-62
2024/02/06 01:22:03;;;;;;;6.40;3.03;;;;;;;13.99;37.90;100075.09;5056278;28;20040;-60
2024/02/06 01:24:28;;;;;;;4.68;2.42;;;;;;;14.00;37.59;100087.41;5050592;28;20040;-60
2024/02/06 01:26:54;;;;;;;5.53;2.72;;;;;;;13.97;37.58;100075.28;5055996;28;20036;-60
2024/02/06 01:29:19;;;;;;;4.97;3.10;;;;;;;13.97;37.60;100082.44;5055086;28;20139;-62
2024/02/06 01:31:46;;;;;;;6.95;2.97;;;;;;;13.94;37.58;100080.94;5055832;28;20048;-61
2024/02/06 01:34:12;;;;;;;4.38;3.22;;;;;;;13.93;37.40;100083.78;5049136;28;20414;-60
2024/02/06 01:36:38;;;;;;;3.42;2.80;;;;;;;13.90;37.12;100076.16;5055856;28;20040;-61
2024/02/06 01:39:04;;;;;;;5.20;2.63;;;;;;;13.87;37.43;100076.50;5053916;28;20052;-60
2024/02/06 01:41:30;;;;;;;4.88;2.75;;;;;;;13.84;37.35;100074.19;5056716;28;20331;-60
2024/02/06 01:43:55;;;;;;;4.97;2.65;;;;;;;13.79;37.40;100069.41;5056255;28;20037;-60
2024/02/06 01:46:21;;;;;;;4.20;3.22;;;;;;;13.87;36.91;100079.16;5049162;28;20450;-61
2024/02/06 01:48:47;;;;;;;5.47;2.65;;;;;;;13.85;37.10;100074.03;5057428;28;20314;-60
2024/02/06 01:51:15;;;;;;;4.22;2.50;;;;;;;13.85;37.10;100082.00;5051741;28;20354;-61
2024/02/06 01:53:41;;;;;;;4.60;2.85;;;;;;;13.87;36.84;100079.16;5058112;28;20029;-62
2024/02/06 01:56:08;;;;;;;4.35;2.85;;;;;;;13.89;36.94;100074.50;5048799;28;20665;-62
2024/02/06 01:58:34;;;;;;;5.65;3.05;;;;;;;13.91;36.58;100081.31;5057098;28;20033;-61
2024/02/06 02:01:01;;;;;;;4.88;2.83;;;;;;;13.90;36.84;100068.16;5046377;28;20034;-61
2024/02/06 02:03:28;;;;;;;4.70;2.83;;;;;;;13.89;36.98;100077.97;5053899;28;20095;-61
2024/02/06 02:05:54;;;;;;;6.95;2.95;;;;;;;13.92;36.93;100067.00;5048582;28;20034;-61
2024/02/06 02:08:21;;;;;;;5.53;3.10;;;;;;;13.90;36.51;100071.66;5055729;28;20116;-61
2024/02/06 02:10:47;;;;;;;6.00;2.80;;;;;;;13.87;36.73;100068.53;5049870;28;20258;-63
2024/02/06 02:13:12;;;;;;;6.40;2.97;;;;;;;13.83;37.22;100068.03;5047515;28;20106;-60
2024/02/06 02:15:38;;;;;;;6.65;3.67;;;;;;;13.74;36.93;100075.25;5055826;28;20048;-61
2024/02/06 02:18:07;;;;;;;7.88;3.72;;;;;;;13.81;36.52;100072.72;5055288;28;20036;-60
2024/02/06 02:20:32;;;;;;;4.82;2.83;;;;;;;13.81;36.37;100074.53;5057910;28;20227;-61
2024/02/06 02:22:58;;;;;;;6.75;3.13;;;;;;;13.80;36.25;100068.38;5054070;28;20041;-61
2024/02/06 02:25:24;;;;;;;8.20;3.40;;;;;;;13.81;36.32;100067.38;5060340;28;20025;-62
2024/02/06 02:27:50;;;;;;;6.97;3.20;;;;;;;13.81;36.37;100061.22;5048720;28;20222;-62
2024/02/06 02:30:17;;;;;;;6.75;2.97;;;;;;;13.84;36.43;100067.03;5060020;28;20048;-61
2024/02/06 02:32:44;;;;;;;4.57;2.70;;;;;;;13.87;36.07;100063.19;5051396;28;20231;-61
2024/02/06 02:35:12;;;;;;;4.00;2.80;;;;;;;13.92;35.61;100063.50;5059945;28;20041;-61
2024/02/06 02:37:39;;;;;;;3.72;2.90;;;;;;;13.97;35.47;100069.13;5047013;28;20165;-61
2024/02/06 02:40:09;;;;;;;5.15;2.70;;;;;;;13.99;35.35;100067.94;5052385;28;20048;-61
2024/02/06 02:42:35;;;;;;;4.53;2.58;;;;;;;14.00;35.17;100074.09;5058044;28;20052;-60
2024/02/06 02:45:00;;;;;;;4.65;2.75;;;;;;;14.02;35.00;100080.91;5048982;28;20036;-61
2024/02/06 02:47:26;;;;;;;4.75;2.90;;;;;;;14.04;34.92;100083.38;5058438;28;20048;-60
2024/02/06 02:49:51;;;;;;;3.65;3.00;;;;;;;14.04;34.82;100089.53;5053390;28;20051;-62
2024/02/06 02:52:17;;;;;;;3.50;2.20;;;;;;;14.05;34.84;100095.69;5059577;28;20103;-63
2024/02/06 02:54:42;;;;;;;4.75;2.60;;;;;;;14.08;34.97;100095.34;5058841;28;20281;-60
2024/02/06 02:57:08;;;;;;;5.75;2.60;;;;;;;14.08;34.77;100108.66;5058899;28;20346;-61
2024/02/06 02:59:33;;;;;;;3.60;2.60;;;;;;;14.07;34.81;100107.84;5052116;28;20036;-61
2024/02/06 03:01:59;;;;;;;3.05;2.40;;;;;;;14.11;34.74;100112.81;5050871;28;20041;-60
2024/02/06 03:04:24;;;;;;;3.15;2.80;;;;;;;14.04;34.29;100110.84;5054564;28;20053;-61
2024/02/06 03:06:51;;;;;;;3.70;2.50;;;;;;;14.09;34.27;100123.63;5052698;28;20048;-60
2024/02/06 03:09:20;;;;;;;5.60;2.72;;;;;;;14.07;34.06;100113.16;5055751;28;20045;-62
2024/02/06 03:11:45;;;;;;;11.88;4.68;;;;;;;14.14;33.88;100123.94;5054738;28;20597;-61
2024/02/06 03:14:12;;;;;;;10.75;3.97;;;;;;;14.18;33.71;100122.56;5057925;28;20545;-61
2024/02/06 03:16:38;;;;;;;5.00;2.47;;;;;;;14.21;33.90;100132.06;5049141;28;20327;-61
2024/02/06 03:19:04;;;;;;;5.18;2.80;;;;;;;14.24;33.32;100129.03;5059647;28;20044;-61
2024/02/06 03:21:29;;;;;;;7.38;3.10;;;;;;;14.28;33.48;100135.66;5049651;28;20239;-62
2024/02/06 03:23:55;;;;;;;5.07;2.83;;;;;;;14.27;33.48;100131.34;5058825;28;20037;-61
2024/02/06 03:26:20;;;;;;;8.07;3.22;;;;;;;14.17;33.57;100131.56;5045080;28;20040;-61
2024/02/06 03:28:46;;;;;;;4.97;3.33;;;;;;;14.17;33.54;100133.41;5056998;28;20485;-60
2024/02/06 03:31:11;;;;;;;7.00;3.08;;;;;;;14.16;33.60;100143.22;5052139;28;20065;-61
2024/02/06 03:33:37;;;;;;;4.80;2.75;;;;;;;14.15;33.59;100132.75;5057785;28;20041;-61
2024/02/06 03:36:03;;;;;;;4.78;2.72;;;;;;;14.13;33.39;100137.41;5051031;28;20084;-60
2024/02/06 03:38:29;;;;;;;3.60;2.22;;;;;;;14.16;33.60;100140.56;5058854;28;20127;-60
2024/02/06 03:40:54;;;;;;;7.05;2.50;;;;;;;14.21;33.06;100135.53;5053776;28;20033;-62
2024/02/06 03:43:20;;;;;;;4.63;2.33;;;;;;;14.18;33.25;100137.72;5052165;28;20074;-60
2024/02/06 03:45:45;;;;;;;4.32;3.15;;;;;;;14.26;33.27;100132.34;5057211;28;20040;-62
2024/02/06 03:48:11;;;;;;;3.33;2.38;;;;;;;14.26;32.91;100130.50;5052119;28;20052;-63
2024/02/06 03:50:37;;;;;;;4.88;2.63;;;;;;;14.29;32.86;100132.00;5058221;28;20037;-61
2024/02/06 03:53:03;;;;;;;3.88;2.33;;;;;;;14.29;32.55;100134.66;5043237;28;20044;-61
2024/02/06 03:55:29;;;;;;;5.40;2.20;;;;;;;14.27;32.64;100137.50;5059351;28;20029;-61
2024/02/06 03:57:54;;;;;;;5.15;2.50;;;;;;;14.27;32.52;100137.50;5049688;28;20263;-60
2024/02/06 04:00:20;;;;;;;4.03;2.30;;;;;;;14.27;32.62;100136.66;5058524;28;20345;-61
2024/02/06 04:02:45;;;;;;;4.95;2.47;;;;;;;14.29;32.48;100140.00;5049780;28;20053;-60
2024/02/06 04:05:11;;;;;;;3.30;2.30;;;;;;;14.25;32.54;100144.00;5058656;28;20381;-62
2024/02/06 04:07:37;;;;;;;3.20;2.20;;;;;;;14.17;32.60;100136.91;5050548;28;20373;-62
2024/02/06 04:10:03;;;;;;;2.78;2.22;;;;;;;14.10;32.76;100135.94;5053338;28;20029;-61
2024/02/06 04:12:28;;;;;;;2.80;2.05;;;;;;;14.07;32.75;100138.94;5051391;28;20045;-61
2024/02/06 04:14:54;;;;;;;5.30;2.40;;;;;;;14.03;33.14;100143.81;5054040;28;20036;-60
2024/02/06 04:17:19;;;;;;;4.10;2.17;;;;;;;14.02;33.04;100134.16;5053282;28;20105;-62
2024/02/06 04:19:45;;;;;;;3.30;2.30;;;;;;;14.04;32.87;100141.97;5055636;28;20041;-62
2024/02/06 04:22:10;;;;;;;3.17;2.28;;;;;;;14.04;32.79;100142.78;5056306;28;20041;-62
2024/02/06 04:24:36;;;;;;;3.63;2.13;;;;;;;13.98;32.98;100146.16;5051250;28;20037;-61
2024/02/06 04:27:02;;;;;;;3.15;2.15;;;;;;;13.95;33.20;100146.50;5057882;28;20037;-61
2024/02/06 04:29:27;;;;;;;5.60;2.55;;;;;;;13.97;33.27;100149.81;5049300;28;20049;-60
2024/02/06 04:31:53;;;;;;;3.75;2.42;;;;;;;13.90;33.13;100148.03;5057012;28;20033;-61
2024/02/06 04:34:18;;;;;;;4.38;2.95;;;;;;;13.86;33.24;100144.88;5048180;28;20068;-60
2024/02/06 04:36:44;;;;;;;4.65;3.30;;;;;;;13.87;33.22;100148.38;5056589;28;20032;-62
2024/02/06 04:39:10;;;;;;;4.38;2.83;;;;;;;13.88;33.20;100147.38;5048517;28;20048;-62
2024/02/06 04:41:36;;;;;;;7.65;4.10;;;;;;;13.74;33.62;100144.44;5057290;28;20098;-61
2024/02/06 04:44:02;;;;;;;5.68;3.50;;;;;;;13.70;33.38;100144.94;5049684;28;20121;-61
2024/02/06 04:46:27;;;;;;;6.18;3.30;;;;;;;13.68;34.00;100142.47;5057731;28;20037;-61
2024/02/06 04:48:53;;;;;;;4.35;2.90;;;;;;;13.62;33.77;100150.31;5053620;28;20474;-63
2024/02/06 04:51:18;;;;;;;4.82;2.85;;;;;;;13.61;33.77;100143.31;5052089;28;20033;-63
2024/02/06 04:53:44;;;;;;;3.70;2.80;;;;;;;13.58;34.10;100152.47;5054224;28;20147;-62
2024/02/06 04:56:12;;;;;;;6.32;3.10;;;;;;;13.62;33.88;100153.78;5053613;28;20044;-61
2024/02/06 04:58:37;;;;;;;5.18;2.67;;;;;;;13.63;33.74;100160.78;5055670;28;20230;-60
2024/02/06 05:01:03;;;;;;;3.00;2.13;;;;;;;13.66;33.46;100170.25;5047610;28;20106;-61
2024/02/06 05:03:29;;;;;;;2.97;2.15;;;;;;;13.63;33.25;100170.59;5057206;28;20053;-61
2024/02/06 05:05:54;;;;;;;6.72;2.72;;;;;;;13.65;33.55;100173.91;5049342;28;20029;-61
2024/02/06 05:08:20;;;;;;;3.65;2.60;;;;;;;13.65;33.40;100174.75;5057355;28;20044;-63
2024/02/06 05:10:47;;;;;;;3.33;2.10;;;;;;;13.66;33.52;100175.56;5043261;28;20071;-63
2024/02/06 05:13:13;;;;;;;3.38;2.05;;;;;;;13.70;33.19;100179.53;5056122;28;20116;-61
2024/02/06 05:15:39;;;;;;;5.93;3.80;;;;;;;13.71;33.06;100178.53;5045519;28;20060;-61
2024/02/06 05:18:04;;;;;;;9.43;5.05;;;;;;;13.66;33.29;100181.72;5057151;28;20323;-60
2024/02/06 05:20:30;;;;;;;5.80;2.97;;;;;;;13.63;33.25;100179.41;5048722;28;20107;-63
2024/02/06 05:22:56;;;;;;;3.35;2.47;;;;;;;13.58;33.52;100171.09;5057340;28;20053;-60
2024/02/06 05:25:21;;;;;;;5.55;3.08;;;;;;;13.52;33.32;100177.06;5052155;28;20056;-60
2024/02/06 05:27:47;;;;;;;5.40;3.28;;;;;;;13.44;33.69;100177.09;5050672;28;20037;-61
2024/02/06 05:30:13;;;;;;;3.22;2.25;;;;;;;13.41;33.52;100186.25;5053506;28;20041;-61
2024/02/06 05:32:39;;;;;;;4.75;2.85;;;;;;;13.34;33.95;100179.94;5051543;28;20462;-61
2024/02/06 05:35:05;;;;;;;4.05;2.88;;;;;;;13.24;34.26;100184.63;5055632;28;20219;-61
2024/02/06 05:37:31;;;;;;;3.85;2.13;;;;;;;13.14;34.48;100175.97;5044420;28;20108;-61
2024/02/06 05:39:57;;;;;;;2.95;2.38;;;;;;;13.02;34.64;100177.31;5057003;28;20041;-62
2024/02/06 05:42:22;;;;;;;4.40;2.05;;;;;;;12.92;35.01;100182.78;5045897;28;20033;-62
2024/02/06 05:44:49;;;;;;;5.57;2.53;;;;;;;12.89;35.52;100182.28;5057254;28;20298;-61
2024/02/06 05:47:16;;;;;;;6.70;2.60;;;;;;;12.86;35.71;100190.59;5049814;28;20087;-61
2024/02/06 05:49:42;;;;;;;4.75;2.38;;;;;;;12.77;35.54;100184.44;5060001;28;20231;-60
2024/02/06 05:52:07;;;;;;;6.47;2.67;;;;;;;12.77;36.13;100187.94;5052270;28;20055;-62
2024/02/06 05:54:33;;;;;;;6.25;3.65;;;;;;;12.75;36.42;100181.13;5058880;28;20041;-63
2024/02/06 05:56:58;;;;;;;4.97;2.40;;;;;;;12.71;35.97;100193.91;5052921;28;20319;-60
2024/02/06 05:59:25;;;;;;;4.75;2.40;;;;;;;12.65;35.90;100196.38;5060063;28;20067;-61
2024/02/06 06:01:51;;;;;;;7.43;2.72;;;;;;;12.62;36.13;100189.56;5054830;28;20025;-61
2024/02/06 06:04:17;;;;;;;4.97;2.45;;;;;;;12.64;36.37;100184.94;5052434;28;20098;-61
2024/02/06 06:06:43;;;;;;;6.85;2.40;;;;;;;12.62;36.38;100186.91;5057142;28;20099;-61
2024/02/06 06:09:09;;;;;;;6.15;2.78;;;;;;;12.61;35.64;100195.06;5053153;28;20052;-61
2024/02/06 06:11:35;;;;;;;6.45;3.78;;;;;;;12.62;36.28;100202.88;5057797;28;20043;-61
2024/02/06 06:14:01;;;;;;;4.57;3.20;;;;;;;12.67;35.88;100205.84;5053616;28;20056;-63
2024/02/06 06:16:27;;;;;;;6.60;2.67;;;;;;;12.76;36.06;100204.88;5058174;28;20342;-62
2024/02/06 06:18:52;;;;;;;4.10;2.88;;;;;;;12.80;35.66;100205.38;5052444;28;20119;-60
2024/02/06 06:21:18;;;;;;;11.07;3.92;;;;;;;12.86;35.80;100211.84;5060917;28;20575;-62
2024/02/06 06:23:43;;;;;;;7.63;3.15;;;;;;;12.98;35.82;100218.50;5059605;28;20327;-61
2024/02/06 06:26:09;;;;;;;3.33;2.10;;;;;;;13.02;36.45;100225.16;5060847;28;20091;-61
2024/02/06 06:28:34;;;;;;;3.85;2.10;;;;;;;13.06;36.54;100231.78;5058676;28;20053;-62
2024/02/06 06:31:00;;;;;;;4.85;2.45;;;;;;;12.99;36.55;100223.66;5060278;28;20387;-62
2024/02/06 06:33:25;;;;;;;4.68;2.85;;;;;;;13.00;37.09;100216.50;5060098;28;20082;-61
2024/02/06 06:35:51;;;;;;;5.72;2.40;;;;;;;12.99;37.04;100213.03;5060100;28;20033;-60
2024/02/06 06:38:17;;;;;;;5.97;2.83;;;;;;;12.95;37.19;100221.50;5057129;28;20098;-60
2024/02/06 06:40:42;;;;;;;6.80;3.10;;;;;;;13.01;37.15;100220.81;5059935;28;20051;-60
2024/02/06 06:43:09;;;;;;;6.93;3.38;;;;;;;13.09;36.90;100213.69;5059189;28;20328;-60
2024/02/06 06:45:35;;;;;;;4.75;2.53;;;;;;;13.26;36.90;100217.19;5058596;28;20041;-60
2024/02/06 06:48:00;;;;;;;8.68;3.10;;;;;;;13.39;36.47;100214.00;5058832;28;20314;-60
2024/02/06 06:50:26;;;;;;;4.68;3.00;;;;;;;13.50;36.36;100215.50;5058490;28;20037;-62
2024/02/06 06:52:51;;;;;;;5.70;3.60;;;;;;;13.58;36.17;100216.34;5058606;28;20033;-62
2024/02/06 06:55:17;;;;;;;13.13;4.60;;;;;;;13.67;36.16;100214.47;5058595;28;20363;-61
2024/02/06 06:57:42;;;;;;;6.97;3.47;;;;;;;13.78;36.07;100211.47;5059588;28;20071;-60
2024/02/06 07:00:12;;;;;;;9.20;2.70;;;;;;;13.82;36.12;100215.44;5054133;28;20102;-60
2024/02/06 07:02:39;;;;;;;10.68;3.30;;;;;;;13.85;36.29;100209.78;5057986;28;20398;-61
2024/02/06 07:05:07;;;;;;;6.75;2.80;;;;;;;14.08;36.08;100209.84;5056452;28;20025;-60
2024/02/06 07:07:32;;;;;;;15.70;3.53;;;;;;;14.22;36.44;100206.44;5058601;28;20045;-60
2024/02/06 07:09:58;;;;;;;5.05;2.28;;;;;;;14.45;36.34;100211.84;5056461;28;20048;-61
2024/02/06 07:12:25;;;;;;;6.05;2.75;;;;;;;14.62;36.18;100207.28;5058750;28;20048;-61
2024/02/06 07:14:50;;;;;;;7.05;2.67;;;;;;;14.66;35.90;100201.41;5055921;28;20104;-62
2024/02/06 07:17:17;;;;;;;5.95;2.42;;;;;;;14.92;34.97;100202.88;5058034;28;20044;-63
2024/02/06 07:19:43;;;;;;;5.10;2.65;;;;;;;15.02;35.01;100201.63;5055624;28;20043;-60
2024/02/06 07:22:09;;;;;;;5.65;2.70;;;;;;;15.13;34.58;100195.03;5058175;28;20049;-61
2024/02/06 07:24:34;;;;;;;16.55;4.18;;;;;;;15.35;34.18;100188.00;5055402;28;20041;-61
2024/02/06 07:27:00;;;;;;;10.93;2.58;;;;;;;15.51;33.38;100185.16;5058246;28;20262;-61
2024/02/06 07:29:26;;;;;;;6.03;2.75;;;;;;;15.66;32.75;100187.06;5056000;28;20037;-60
2024/02/06 07:31:52;;;;;;;25.02;5.32;;;;;;;15.75;33.08;100181.44;5057889;28;20212;-60
2024/02/06 07:34:20;;;;;;;7.13;2.83;;;;;;;15.83;32.88;100183.19;5057764;28;20041;-60
2024/02/06 07:36:46;;;;;;;5.80;2.05;;;;;;;15.98;32.71;100181.34;5055708;28;20092;-60
2024/02/06 07:39:12;;;;;;;5.68;2.05;;;;;;;15.90;32.28;100184.94;5057160;28;20036;-61
2024/02/06 07:41:38;;;;;;;6.30;2.55;;;;;;;15.98;32.64;100181.34;5055121;28;20029;-61
2024/02/06 07:44:04;;;;;;;4.95;2.60;;;;;;;16.03;32.38;100181.59;5057365;28;20051;-60
2024/02/06 07:46:32;;;;;;;3.75;2.17;;;;;;;16.05;32.11;100186.75;5054104;28;20148;-62
2024/02/06 07:48:57;;;;;;;8.02;3.00;;;;;;;15.99;32.49;100176.81;5057910;28;20108;-62
2024/02/06 07:51:24;;;;;;;6.47;2.78;;;;;;;16.19;32.20;100188.56;5055543;28;20040;-61
2024/02/06 07:53:49;;;;;;;5.00;2.40;;;;;;;16.31;32.04;100183.56;5058793;28;20218;-60
2024/02/06 07:56:16;;;;;;;4.53;2.72;;;;;;;16.45;32.10;100178.19;5055492;28;20043;-60
2024/02/06 07:58:41;;;;;;;4.45;2.63;;;;;;;16.53;31.81;100171.88;5058020;28;20029;-61
2024/02/06 08:01:07;;;;;;;4.80;2.70;;;;;;;16.63;32.22;100177.75;5056365;28;20335;-60
2024/02/06 08:03:33;;;;;;;4.30;2.60;;;;;;;16.81;31.93;100180.03;5057096;28;20059;-60
2024/02/06 08:05:58;;;;;;;95.00;11.05;;;;;;;16.86;31.33;100181.13;5055332;28;20040;-61
2024/02/06 08:08:24;;;;;;;3.55;2.63;;;;;;;17.07;31.75;100171.41;5057691;28;20037;-60
2024/02/06 08:10:50;;;;;;;8.98;3.55;;;;;;;17.24;31.06;100172.78;5057400;28;20037;-61
2024/02/06 08:13:16;;;;;;;20.13;4.25;;;;;;;17.39;30.25;100165.47;5054032;28;20076;-61
2024/02/06 08:15:41;;;;;;;4.70;2.22;;;;;;;17.45;29.37;100161.19;5057718;28;20041;-61
2024/02/06 08:18:07;;;;;;;4.50;2.50;;;;;;;17.47;29.34;100162.63;5055337;28;20102;-62
2024/02/06 08:20:33;;;;;;;3.08;2.40;;;;;;;17.47;29.17;100154.59;5057254;28;20342;-62
2024/02/06 08:22:59;;;;;;;6.18;3.03;;;;;;;17.56;29.32;100163.31;5055831;28;20033;-61
2024/02/06 08:25:25;;;;;;;4.60;2.17;;;;;;;17.69;29.05;100155.41;5056622;28;20354;-61
2024/02/06 08:27:51;;;;;;;3.92;1.90;;;;;;;17.76;29.00;100164.31;5055447;28;20032;-61
2024/02/06 08:30:17;;;;;;;4.70;2.60;;;;;;;17.86;28.39;100161.25;5057102;28;20311;-62
2024/02/06 08:32:43;;;;;;;7.80;2.50;;;;;;;17.95;28.79;100165.44;5055916;28;20231;-61
2024/02/06 08:35:09;;;;;;;9.82;3.50;;;;;;;18.01;28.54;100156.59;5056859;28;20041;-61
2024/02/06 08:37:35;;;;;;;5.43;3.05;;;;;;;18.08;28.46;100160.13;5054126;28;20048;-60
2024/02/06 08:40:02;;;;;;;5.20;2.72;;;;;;;18.09;28.65;100161.78;5057456;28;20051;-61
2024/02/06 08:42:28;;;;;;;5.50;2.50;;;;;;;18.17;28.08;100164.28;5055888;28;20051;-61
2024/02/06 08:44:53;;;;;;;7.93;3.55;;;;;;;18.28;28.16;100160.19;5055681;28;20041;-60
2024/02/06 08:47:19;;;;;;;4.63;2.75;;;;;;;18.32;28.48;100161.44;5057155;28;20103;-61
2024/02/06 08:49:44;;;;;;;4.72;2.92;;;;;;;18.39;28.50;100161.44;5053981;28;20381;-63
2024/02/06 08:52:10;;;;;;;4.80;2.80;;;;;;;18.52;28.32;100159.63;5056872;28;20063;-62
2024/02/06 08:54:35;;;;;;;9.73;3.80;;;;;;;18.63;28.35;100165.44;5054846;28;20033;-62
2024/02/06 08:57:01;;;;;;;48.83;8.98;;;;;;;18.68;27.64;100169.16;5056783;28;20040;-60
2024/02/06 08:59:27;;;;;;;9.70;3.58;;;;;;;18.75;27.89;100170.03;5053927;28;20231;-62
2024/02/06 09:01:53;;;;;;;7.18;3.50;;;;;;;18.85;28.46;100176.84;5056358;28;20028;-61
2024/02/06 09:04:18;;;;;;;12.48;3.65;;;;;;;18.88;27.44;100171.91;5053956;28;20060;-60
2024/02/06 09:06:44;;;;;;;6.75;2.63;;;;;;;18.93;27.39;100168.59;5056329;28;20260;-61
2024/02/06 09:09:09;;;;;;;6.80;2.30;;;;;;;18.90;27.56;100164.47;5053745;28;20232;-61
2024/02/06 09:11:35;;;;;;;7.88;2.80;;;;;;;18.99;27.59;100157.03;5055809;28;20204;-61
2024/02/06 09:14:00;;;;;;;4.20;2.53;;;;;;;19.02;28.17;100165.50;5054693;28;20037;-61
2024/02/06 09:16:26;;;;;;;4.22;2.40;;;;;;;19.06;28.39;100164.06;5055684;28;20078;-61
2024/02/06 09:18:55;;;;;;;4.68;2.47;;;;;;;19.02;28.29;100160.13;5054528;28;20051;-61
2024/02/06 09:21:20;;;;;;;4.07;2.20;;;;;;;19.10;27.63;100164.47;5055040;28;20033;-62
2024/02/06 09:23:46;;;;;;;6.95;2.60;;;;;;;19.17;27.50;100156.41;5056428;28;20059;-63
2024/02/06 09:26:15;;;;;;;4.30;2.97;;;;;;;19.18;27.55;100153.53;5053880;28;20056;-61
2024/02/06 09:28:44;;;;;;;4.97;2.65;;;;;;;19.22;27.80;100156.63;5056536;28;20238;-60
2024/02/06 09:31:10;;;;;;;9.07;3.45;;;;;;;19.24;28.24;100144.63;5054204;28;20234;-61
2024/02/06 09:33:35;;;;;;;8.00;2.97;;;;;;;19.34;28.30;100149.56;5053291;28;20043;-61
2024/02/06 09:36:02;;;;;;;8.48;3.35;;;;;;;19.41;28.37;100151.22;5054861;28;20044;-61
2024/02/06 09:38:28;;;;;;;6.45;2.70;;;;;;;19.42;27.52;100152.03;5055515;28;20242;-61
2024/02/06 09:40:54;;;;;;;5.97;2.65;;;;;;;19.44;27.65;100145.44;5056831;28;20043;-61
2024/02/06 09:43:21;;;;;;;14.52;3.72;;;;;;;19.50;27.19;100146.44;5054860;28;20040;-61
2024/02/06 09:45:47;;;;;;;6.57;3.55;;;;;;;19.52;27.22;100147.09;5056289;28;20070;-62
2024/02/06 09:48:13;;;;;;;4.72;2.45;;;;;;;19.59;27.31;100139.84;5054362;28;20078;-62
2024/02/06 09:50:40;;;;;;;4.30;2.47;;;;;;;19.62;27.44;100144.78;5056221;28;20040;-61
2024/02/06 09:53:09;;;;;;;4.40;2.60;;;;;;;19.66;27.14;100142.50;5056442;28;20054;-62
2024/02/06 09:55:37;;;;;;;6.05;3.22;;;;;;;19.67;26.92;100136.09;5053897;28;20104;-63
2024/02/06 09:58:03;;;;;;;5.90;3.08;;;;;;;19.69;26.52;100134.03;5055894;28;20100;-61
2024/02/06 10:00:30;;;;;;;5.80;2.40;;;;;;;19.70;26.27;100136.50;5053266;28;20067;-61
2024/02/06 10:02:59;;;;;;;6.68;2.97;;;;;;;19.71;26.69;100121.19;5055694;28;20052;-61
2024/02/06 10:05:32;;;;;;;4.40;2.33;;;;;;;19.71;26.10;100127.41;5054416;28;20056;-61
2024/02/06 10:07:59;;;;;;;4.65;3.10;;;;;;;19.73;25.44;100119.13;5056115;28;20033;-61
2024/02/06 10:10:26;;;;;;;3.55;2.42;;;;;;;19.77;25.21;100126.59;5053922;28;20269;-61
2024/02/06 10:12:52;;;;;;;8.32;3.03;;;;;;;19.82;25.62;100115.19;5055673;28;20067;-60
2024/02/06 10:15:18;;;;;;;6.72;2.58;;;;;;;19.85;24.90;100120.16;5052453;28;20033;-62
2024/02/06 10:17:44;;;;;;;4.45;1.83;;;;;;;19.90;24.16;100116.81;5055935;28;20094;-61
2024/02/06 10:20:10;;;;;;;3.67;3.28;;;;;;;19.89;24.19;100109.78;5053928;28;20331;-61
2024/02/06 10:22:39;;;;;;;6.05;3.00;;;;;;;19.90;23.61;100106.06;5055966;28;20316;-61
2024/02/06 10:25:05;;;;;;;6.10;2.83;;;;;;;19.93;23.91;100100.25;5055047;28;20346;-63
2024/02/06 10:27:31;;;;;;;7.28;3.40;;;;;;;19.92;23.23;100091.38;5054971;28;20300;-63
2024/02/06 10:30:06;;;;;;;8.93;4.45;;;;;;;19.97;23.14;100075.44;5054291;28;20045;-62
2024/02/06 10:32:33;;;;;;;6.65;3.65;;;;;;;20.02;23.06;100075.59;5055919;28;20059;-61
2024/02/06 10:35:03;;;;;;;5.45;3.00;;;;;;;20.10;23.01;100069.16;5056688;28;20055;-61
2024/02/06 10:37:32;;;;;;;3.33;2.05;;;;;;;20.18;22.84;100068.06;5057459;28;20090;-60
2024/02/06 10:39:59;;;;;;;5.43;1.80;;;;;;;20.23;22.88;100057.50;5057995;28;20040;-61
2024/02/06 10:42:25;;;;;;;3.65;1.10;;;;;;;20.26;22.49;100051.69;5056292;28;20123;-60
2024/02/06 10:44:57;;;;;;;4.97;1.60;;;;;;;20.30;22.53;100039.44;5059405;28;20322;-61
2024/02/06 10:47:23;;;;;;;4.75;1.60;;;;;;;20.34;22.60;100027.22;5057007;28;20039;-61
2024/02/06 10:50:00;;;;;;;3.65;1.42;;;;;;;20.39;23.02;100014.78;5059140;28;20109;-62
2024/02/06 10:52:25;;;;;;;3.65;2.03;;;;;;;20.42;22.50;100010.84;5056981;28;20326;-61
2024/02/06 10:54:51;;;;;;;4.53;1.38;;;;;;;20.45;22.71;100010.41;5058603;28;20056;-61
2024/02/06 10:57:21;;;;;;;3.25;1.42;;;;;;;20.49;22.85;100002.72;5057226;28;20961;-63
2024/02/06 10:59:56;;;;;;;4.00;1.50;;;;;;;20.52;22.22;100003.09;5058764;28;20029;-62
2024/02/06 11:02:32;;;;;;;6.72;1.73;;;;;;;20.57;22.01;99987.09;5056673;28;20062;-60
2024/02/06 11:05:13;;;;;;;2.65;1.38;;;;;;;20.60;22.36;99993.91;5058393;28;20086;-61
2024/02/06 11:07:47;;;;;;;3.40;1.50;;;;;;;20.64;22.22;99984.34;5056187;28;20056;-61
2024/02/06 11:10:15;;;;;;;;;;;;;;;20.65;21.91;99986.00;5059569;28;20042;-61
2024/02/06 11:12:42;;;;;;;5.47;1.70;;;;;;;20.65;22.18;99977.94;5056294;28;19924;-61
2024/02/06 11:15:09;;;;;;;3.38;1.48;;;;;;;20.63;22.61;99977.34;5057166;28;20037;-61
2024/02/06 11:17:37;;;;;;;4.25;2.13;;;;;;;20.65;21.87;99961.78;5057278;28;20078;-62
2024/02/06 11:20:09;;;;;;;4.10;1.73;;;;;;;20.68;21.77;99959.47;5058865;28;20033;-62